Time;durP1;ratioP1;P1;durP2;ratioP2;P2;SDS_P1;SDS_P2;PMS_P1;PMS_P2;Temp;Humidity;BMP_temperature;BMP_pressure;BME280_temperature;BME280_humidity;BME280_pressure;Samples;Min_cycle;Max_cycle;Signal;HPM_P1;HPM_P2
2022/05/13 00:01:53;;;;;;;;;21.80;19.80;;;;;;;;5039251;28;8870;-63
2022/05/13 00:04:20;;;;;;;;;22.60;22.60;;;;;;;;5039799;28;8793;-63
2022/05/13 00:06:47;;;;;;;;;26.60;25.80;;;;;;;;5039652;28;8780;-64
2022/05/13 00:09:14;;;;;;;;;25.00;22.80;;;;;;;;5022457;28;8778;-64
2022/05/13 00:11:41;;;;;;;;;25.00;23.80;;;;;;;;5039516;28;9024;-63
2022/05/13 00:14:08;;;;;;;;;26.60;24.40;;;;;;;;5039738;28;9854;-64
2022/05/13 00:16:36;;;;;;;;;23.60;20.80;;;;;;;;5021317;28;8892;-63
2022/05/13 00:19:04;;;;;;;;;24.20;24.20;;;;;;;;5040064;28;8741;-64
2022/05/13 00:21:31;;;;;;;;;23.40;21.60;;;;;;;;5039164;28;8842;-64
2022/05/13 00:23:57;;;;;;;;;23.80;20.80;;;;;;;;5039404;28;8858;-64
2022/05/13 00:26:24;;;;;;;;;28.40;24.20;;;;;;;;5038880;28;8810;-64
2022/05/13 00:28:51;;;;;;;;;21.00;20.00;;;;;;;;5038491;28;8773;-63
2022/05/13 00:31:18;;;;;;;;;22.40;22.40;;;;;;;;5039505;28;8742;-63
2022/05/13 00:33:45;;;;;;;;;25.40;25.40;;;;;;;;5039023;28;8757;-64
2022/05/13 00:36:11;;;;;;;;;19.60;19.40;;;;;;;;5020557;28;8887;-64
2022/05/13 00:38:38;;;;;;;;;26.60;25.40;;;;;;;;5020076;28;9501;-64
2022/05/13 00:41:05;;;;;;;;;20.80;19.00;;;;;;;;5037329;28;8785;-63
2022/05/13 00:43:39;;;;;;;;;28.80;22.60;;;;;;;;5019136;28;8814;-63
2022/05/13 00:46:05;;;;;;;;;22.60;21.00;;;;;;;;5037311;28;8806;-64
2022/05/13 00:48:32;;;;;;;;;28.20;26.40;;;;;;;;5036004;28;8884;-64
2022/05/13 00:50:59;;;;;;;;;28.20;25.40;;;;;;;;5036403;28;8760;-63
2022/05/13 00:53:26;;;;;;;;;24.80;22.80;;;;;;;;5036260;28;8895;-64
2022/05/13 00:55:52;;;;;;;;;25.80;23.00;;;;;;;;5036631;28;9524;-65
2022/05/13 00:58:19;;;;;;;;;26.00;24.60;;;;;;;;5020985;28;8931;-66
2022/05/13 01:00:46;;;;;;;;;18.60;16.20;;;;;;;;5020362;28;8831;-68
2022/05/13 01:03:13;;;;;;;;;23.60;23.20;;;;;;;;5037326;28;8867;-68
2022/05/13 01:05:49;;;;;;;;;24.00;21.20;;;;;;;;5019683;28;8901;-67
2022/05/13 01:08:17;;;;;;;;;24.20;20.00;;;;;;;;5037940;28;8785;-64
2022/05/13 01:10:44;;;;;;;;;19.40;17.80;;;;;;;;5037347;28;9413;-65
2022/05/13 01:13:11;;;;;;;;;23.20;19.20;;;;;;;;5017931;28;8773;-64
2022/05/13 01:15:39;;;;;;;;;17.60;16.40;;;;;;;;5034877;28;8764;-65
2022/05/13 01:18:06;;;;;;;;;22.20;19.00;;;;;;;;5035800;28;8746;-64
2022/05/13 01:20:34;;;;;;;;;21.00;15.40;;;;;;;;5037028;28;8797;-64
2022/05/13 01:23:02;;;;;;;;;24.40;17.80;;;;;;;;5037323;28;9078;-64
2022/05/13 01:25:33;;;;;;;;;15.20;11.00;;;;;;;;5035552;28;8757;-64
2022/05/13 01:28:10;;;;;;;;;24.60;18.20;;;;;;;;5037878;28;8726;-65
2022/05/13 01:30:39;;;;;;;;;24.00;17.20;;;;;;;;5036318;28;8788;-65
2022/05/13 01:33:06;;;;;;;;;16.40;15.80;;;;;;;;5037458;28;8827;-64
2022/05/13 01:35:33;;;;;;;;;21.20;19.20;;;;;;;;5036476;28;8900;-64
2022/05/13 01:37:59;;;;;;;;;21.20;19.00;;;;;;;;5019163;28;8785;-65
2022/05/13 01:40:26;;;;;;;;;19.00;19.00;;;;;;;;5036475;28;8769;-63
2022/05/13 01:42:53;;;;;;;;;21.40;18.40;;;;;;;;5035753;28;8802;-63
2022/05/13 01:45:19;;;;;;;;;24.20;18.80;;;;;;;;5035030;28;8769;-65
2022/05/13 01:47:46;;;;;;;;;23.20;20.60;;;;;;;;5035689;28;8764;-64
2022/05/13 01:50:13;;;;;;;;;21.60;19.40;;;;;;;;5035482;28;8854;-65
2022/05/13 01:52:39;;;;;;;;;17.60;17.60;;;;;;;;5035736;28;9071;-64
2022/05/13 01:55:06;;;;;;;;;18.60;18.60;;;;;;;;5037198;28;8722;-63
2022/05/13 01:57:33;;;;;;;;;16.60;15.60;;;;;;;;5036287;28;9383;-63
2022/05/13 02:00:01;;;;;;;;;25.00;21.60;;;;;;;;5036871;28;8763;-67
2022/05/13 02:02:28;;;;;;;;;20.20;16.00;;;;;;;;5035929;28;8793;-69
2022/05/13 02:04:54;;;;;;;;;21.00;17.40;;;;;;;;5018906;28;9477;-65
2022/05/13 02:07:21;;;;;;;;;18.80;16.40;;;;;;;;5036795;28;8765;-64
2022/05/13 02:09:48;;;;;;;;;21.80;17.00;;;;;;;;5018447;28;9112;-65
2022/05/13 02:12:15;;;;;;;;;17.60;14.60;;;;;;;;5035869;28;8777;-66
2022/05/13 02:14:42;;;;;;;;;17.40;14.80;;;;;;;;5035745;28;8796;-64
2022/05/13 02:17:09;;;;;;;;;20.80;15.20;;;;;;;;5018969;28;8793;-65
2022/05/13 02:19:38;;;;;;;;;18.60;16.40;;;;;;;;5036614;28;8879;-65
2022/05/13 02:22:05;;;;;;;;;17.80;15.00;;;;;;;;5019255;28;8877;-64
2022/05/13 02:24:32;;;;;;;;;20.80;16.80;;;;;;;;5035794;28;8840;-66
2022/05/13 02:26:59;;;;;;;;;15.80;14.00;;;;;;;;5036140;28;8769;-64
2022/05/13 02:29:25;;;;;;;;;19.60;17.60;;;;;;;;5035210;28;8793;-64
2022/05/13 02:31:52;;;;;;;;;13.20;13.20;;;;;;;;5018545;28;8929;-65
2022/05/13 02:34:22;;;;;;;;;18.60;17.80;;;;;;;;5035454;28;8790;-64
2022/05/13 02:36:49;;;;;;;;;25.00;19.60;;;;;;;;5035329;28;8852;-64
2022/05/13 02:39:15;;;;;;;;;20.20;17.40;;;;;;;;5035300;28;8978;-64
2022/05/13 02:41:44;;;;;;;;;20.40;17.80;;;;;;;;5035210;28;9466;-64
2022/05/13 02:44:11;;;;;;;;;20.40;18.00;;;;;;;;5035238;28;8915;-64
2022/05/13 02:46:38;;;;;;;;;18.60;17.80;;;;;;;;5017161;28;10110;-61
2022/05/13 02:49:05;;;;;;;;;17.60;17.60;;;;;;;;5018220;28;8773;-65
2022/05/13 02:51:31;;;;;;;;;21.20;17.40;;;;;;;;5035774;28;8766;-64
2022/05/13 02:53:58;;;;;;;;;20.80;17.80;;;;;;;;5032278;28;8816;-65
2022/05/13 02:56:25;;;;;;;;;20.40;19.40;;;;;;;;5033058;28;8766;-65
2022/05/13 02:58:52;;;;;;;;;21.60;19.60;;;;;;;;5034877;28;8854;-65
2022/05/13 03:01:19;;;;;;;;;18.40;17.60;;;;;;;;5017156;28;8857;-63
2022/05/13 03:03:46;;;;;;;;;18.40;16.80;;;;;;;;5015811;28;8928;-64
2022/05/13 03:06:13;;;;;;;;;18.20;16.00;;;;;;;;5001221;28;9624;-64
2022/05/13 03:08:40;;;;;;;;;21.00;18.40;;;;;;;;5033948;28;8782;-63
2022/05/13 03:11:07;;;;;;;;;19.20;18.40;;;;;;;;5034127;28;8773;-64
2022/05/13 03:13:33;;;;;;;;;23.60;20.00;;;;;;;;5032569;28;9415;-63
2022/05/13 03:16:04;;;;;;;;;22.60;18.00;;;;;;;;5032691;28;8746;-65
2022/05/13 03:18:30;;;;;;;;;22.80;19.00;;;;;;;;5031912;28;8788;-64
2022/05/13 03:20:57;;;;;;;;;25.00;19.00;;;;;;;;5032589;28;8761;-63
2022/05/13 03:23:24;;;;;;;;;19.40;18.40;;;;;;;;5032546;28;8910;-64
2022/05/13 03:25:51;;;;;;;;;16.60;16.00;;;;;;;;5033442;28;9093;-64
2022/05/13 03:28:18;;;;;;;;;16.40;14.60;;;;;;;;5015277;28;9142;-63
2022/05/13 03:30:44;;;;;;;;;17.00;15.80;;;;;;;;5032767;28;8750;-66
2022/05/13 03:33:11;;;;;;;;;21.80;20.60;;;;;;;;5015556;28;8785;-67
2022/05/13 03:35:39;;;;;;;;;17.60;16.00;;;;;;;;5034047;28;8809;-67
2022/05/13 03:38:06;;;;;;;;;18.60;12.00;;;;;;;;5017121;28;8867;-68
2022/05/13 03:40:32;;;;;;;;;15.00;13.00;;;;;;;;5016621;28;8765;-68
2022/05/13 03:42:59;;;;;;;;;16.60;14.40;;;;;;;;5017568;28;8809;-68
2022/05/13 03:45:27;;;;;;;;;18.20;16.20;;;;;;;;5032472;28;9011;-68
2022/05/13 03:47:53;;;;;;;;;22.00;15.60;;;;;;;;5033201;28;8983;-67
2022/05/13 03:50:21;;;;;;;;;18.20;17.80;;;;;;;;5034495;28;8777;-67
2022/05/13 03:52:47;;;;;;;;;15.40;14.20;;;;;;;;4962175;28;2077646;-67
2022/05/13 03:55:14;;;;;;;;;14.20;12.60;;;;;;;;5035915;28;8863;-67
2022/05/13 03:57:41;;;;;;;;;16.00;13.40;;;;;;;;5034970;28;8745;-67
2022/05/13 04:00:09;;;;;;;;;15.40;12.20;;;;;;;;5017793;28;8702;-67
2022/05/13 04:02:36;;;;;;;;;17.00;14.80;;;;;;;;5017503;28;8777;-67
2022/05/13 04:10:34;;;;;;;;;19.60;17.00;;;;;;;;5034644;28;9484;-64
2022/05/13 04:18:31;;;;;;;;;13.60;11.20;;;;;;;;5038390;28;8754;-64
2022/05/13 04:20:58;;;;;;;;;16.00;14.40;;;;;;;;5038148;28;8862;-64
2022/05/13 04:23:24;;;;;;;;;13.00;9.60;;;;;;;;5019934;28;8793;-64
2022/05/13 04:25:51;;;;;;;;;17.20;16.00;;;;;;;;5037493;28;8773;-63
2022/05/13 04:28:18;;;;;;;;;15.60;15.60;;;;;;;;5020408;28;8830;-62
2022/05/13 04:30:45;;;;;;;;;16.20;13.40;;;;;;;;5038123;28;8753;-63
2022/05/13 04:33:14;;;;;;;;;18.40;14.00;;;;;;;;5037930;28;8810;-63
2022/05/13 04:35:41;;;;;;;;;18.20;16.00;;;;;;;;5020258;28;8789;-66
2022/05/13 04:38:08;;;;;;;;;13.20;10.40;;;;;;;;5038636;28;8777;-65
2022/05/13 04:40:35;;;;;;;;;16.60;14.80;;;;;;;;5038316;28;8761;-65
2022/05/13 04:43:02;;;;;;;;;11.60;10.60;;;;;;;;5036264;28;8797;-62
2022/05/13 04:45:29;;;;;;;;;17.60;14.80;;;;;;;;5037802;28;8757;-66
2022/05/13 04:48:18;;;;;;;;;17.20;14.00;;;;;;;;5038113;28;8757;-67
2022/05/13 04:51:01;;;;;;;;;19.40;17.20;;;;;;;;5038146;28;8757;-66
2022/05/13 04:53:29;;;;;;;;;15.60;15.60;;;;;;;;5020403;28;8769;-66
2022/05/13 04:55:56;;;;;;;;;12.20;12.20;;;;;;;;5037532;28;8789;-66
2022/05/13 04:58:23;;;;;;;;;18.20;14.00;;;;;;;;5020545;28;8851;-67
2022/05/13 05:00:50;;;;;;;;;17.00;14.00;;;;;;;;5037901;28;9415;-67
2022/05/13 05:03:16;;;;;;;;;17.20;15.80;;;;;;;;5037294;28;8805;-65
2022/05/13 05:05:43;;;;;;;;;19.20;16.00;;;;;;;;5037869;28;8860;-67
2022/05/13 05:08:13;;;;;;;;;12.20;11.20;;;;;;;;5037803;28;8892;-62
2022/05/13 05:10:40;;;;;;;;;19.00;16.00;;;;;;;;5037780;28;8746;-62
2022/05/13 05:13:07;;;;;;;;;15.80;9.80;;;;;;;;5038141;28;8827;-63
2022/05/13 05:15:34;;;;;;;;;15.40;14.20;;;;;;;;5037246;28;8977;-64
2022/05/13 05:18:01;;;;;;;;;11.00;11.00;;;;;;;;5037126;28;8756;-62
2022/05/13 05:20:28;;;;;;;;;16.60;13.80;;;;;;;;5020024;28;8782;-62
2022/05/13 05:22:55;;;;;;;;;16.75;14.00;;;;;;;;5019798;28;8883;-64
2022/05/13 05:25:22;;;;;;;;;13.75;13.00;;;;;;;;5019565;28;8827;-61
2022/05/13 05:27:49;;;;;;;;;17.25;15.25;;;;;;;;5036593;28;8770;-62
2022/05/13 05:30:16;;;;;;;;;16.00;13.00;;;;;;;;5018902;28;8868;-64
2022/05/13 05:32:43;;;;;;;;;17.80;17.80;;;;;;;;5036911;28;8801;-64
2022/05/13 05:35:11;;;;;;;;;19.75;15.50;;;;;;;;5036304;28;8805;-64
2022/05/13 05:37:38;;;;;;;;;14.75;13.00;;;;;;;;5019212;28;8801;-64
2022/05/13 05:40:05;;;;;;;;;14.60;12.60;;;;;;;;5037788;28;8773;-64
2022/05/13 05:42:32;;;;;;;;;17.00;15.80;;;;;;;;5025305;28;8805;-64
2022/05/13 05:44:58;;;;;;;;;14.40;13.20;;;;;;;;5036532;28;9926;-63
2022/05/13 05:47:25;;;;;;;;;16.60;14.60;;;;;;;;5035991;28;8852;-64
2022/05/13 05:49:52;;;;;;;;;19.50;17.00;;;;;;;;5019742;28;8836;-64
2022/05/13 05:52:19;;;;;;;;;22.75;19.25;;;;;;;;5015980;28;8791;-64
2022/05/13 05:57:30;;;;;;;;;17.25;17.25;;;;;;;;5015735;28;8770;-64
2022/05/13 05:59:57;;;;;;;;;15.40;14.40;;;;;;;;5016180;28;8790;-64
2022/05/13 06:02:24;;;;;;;;;13.60;13.60;;;;;;;;5015115;28;8921;-64
2022/05/13 06:04:51;;;;;;;;;16.60;13.80;;;;;;;;5014688;28;8774;-64
2022/05/13 06:07:17;;;;;;;;;18.25;15.00;;;;;;;;5015530;28;8751;-63
2022/05/13 06:09:44;;;;;;;;;16.50;13.75;;;;;;;;5015519;28;8845;-63
2022/05/13 06:12:12;;;;;;;;;13.20;11.60;;;;;;;;5016513;28;8778;-64
2022/05/13 06:14:41;;;;;;;;;15.25;15.25;;;;;;;;5016326;28;8936;-62
2022/05/13 06:17:08;;;;;;;;;11.75;11.75;;;;;;;;5016658;28;8789;-63
2022/05/13 06:19:35;;;;;;;;;17.00;12.80;;;;;;;;5016271;28;8794;-64
2022/05/13 06:22:02;;;;;;;;;17.40;13.80;;;;;;;;5016886;28;8743;-63
2022/05/13 06:24:29;;;;;;;;;18.75;15.25;;;;;;;;5015084;28;8791;-64
2022/05/13 06:26:55;;;;;;;;;6.60;6.60;;;;;;;;5016192;28;8857;-64
2022/05/13 06:29:23;;;;;;;;;13.40;13.40;;;;;;;;5014648;28;8759;-65
2022/05/13 06:31:49;;;;;;;;;15.20;15.20;;;;;;;;4999254;28;8770;-64
2022/05/13 06:34:16;;;;;;;;;10.00;10.00;;;;;;;;5016144;28;8775;-64
2022/05/13 06:36:43;;;;;;;;;18.50;14.75;;;;;;;;4999599;28;8755;-63
2022/05/13 06:39:10;;;;;;;;;14.40;11.60;;;;;;;;5017524;28;8758;-63
2022/05/13 06:41:37;;;;;;;;;17.00;14.80;;;;;;;;5018107;28;8809;-64
2022/05/13 06:44:08;;;;;;;;;14.40;12.00;;;;;;;;5018658;28;8775;-62
2022/05/13 06:46:37;;;;;;;;;16.20;13.00;;;;;;;;5017542;28;8754;-65
2022/05/13 06:49:05;;;;;;;;;10.20;10.20;;;;;;;;5018695;28;8842;-64
2022/05/13 06:51:32;;;;;;;;;15.60;13.00;;;;;;;;5020409;28;8781;-64
2022/05/13 06:54:04;;;;;;;;;13.20;9.80;;;;;;;;5019292;28;8776;-63
2022/05/13 06:56:31;;;;;;;;;21.00;16.00;;;;;;;;5015155;28;8776;-63
2022/05/13 06:58:58;;;;;;;;;19.00;16.25;;;;;;;;5016162;28;8893;-63
2022/05/13 07:01:25;;;;;;;;;12.40;10.60;;;;;;;;5015936;28;9001;-62
2022/05/13 07:03:55;;;;;;;;;13.25;13.25;;;;;;;;5016395;28;8776;-62
2022/05/13 07:06:22;;;;;;;;;15.80;14.40;;;;;;;;4998843;28;8772;-65
2022/05/13 07:08:50;;;;;;;;;19.00;17.40;;;;;;;;4999561;28;8825;-63
2022/05/13 07:11:17;;;;;;;;;17.80;17.80;;;;;;;;5034906;28;8781;-64
2022/05/13 07:13:44;;;;;;;;;19.00;15.75;;;;;;;;5036920;28;8745;-64
2022/05/13 07:16:11;;;;;;;;;13.75;13.75;;;;;;;;5036760;28;8745;-63
2022/05/13 07:18:39;;;;;;;;;16.50;13.25;;;;;;;;5036386;28;8785;-64
2022/05/13 07:21:06;;;;;;;;;18.00;15.75;;;;;;;;5036170;28;9468;-62
2022/05/13 07:23:32;;;;;;;;;15.25;15.25;;;;;;;;5036296;28;8855;-62
2022/05/13 07:26:00;;;;;;;;;21.25;15.50;;;;;;;;5036098;28;8800;-63
2022/05/13 07:28:27;;;;;;;;;10.60;9.20;;;;;;;;5036055;28;8754;-63
2022/05/13 07:30:54;;;;;;;;;19.25;16.75;;;;;;;;5019575;28;8749;-63
2022/05/13 07:33:22;;;;;;;;;21.50;19.25;;;;;;;;5035767;28;8777;-62
2022/05/13 07:35:49;;;;;;;;;17.25;17.25;;;;;;;;5035741;28;8808;-64
2022/05/13 07:38:16;;;;;;;;;20.40;18.80;;;;;;;;5035436;28;9413;-64
2022/05/13 07:43:28;;;;;;;;;24.00;19.25;;;;;;;;5035116;28;8757;-62
2022/05/13 07:45:54;;;;;;;;;14.00;14.00;;;;;;;;5018917;28;8807;-63
2022/05/13 07:48:21;;;;;;;;;20.50;18.25;;;;;;;;5017691;28;8773;-63
2022/05/13 07:50:48;;;;;;;;;20.25;19.75;;;;;;;;5037846;28;8742;-64
2022/05/13 07:53:15;;;;;;;;;28.00;24.25;;;;;;;;5038641;28;8746;-64
2022/05/13 07:55:41;;;;;;;;;27.00;25.25;;;;;;;;5020712;28;8768;-64
2022/05/13 07:58:08;;;;;;;;;23.50;21.75;;;;;;;;5040225;28;8725;-64
2022/05/13 08:00:38;;;;;;;;;27.75;25.75;;;;;;;;5039172;28;9453;-64
2022/05/13 08:03:08;;;;;;;;;23.50;21.75;;;;;;;;5038652;28;8821;-64
2022/05/13 08:05:40;;;;;;;;;23.40;19.40;;;;;;;;5038726;28;8875;-64
2022/05/13 08:08:08;;;;;;;;;19.20;17.60;;;;;;;;5021371;28;8773;-64
2022/05/13 08:10:35;;;;;;;;;20.00;19.50;;;;;;;;5038204;28;8895;-64
2022/05/13 08:13:02;;;;;;;;;25.25;22.00;;;;;;;;5038942;28;8839;-64
2022/05/13 08:15:29;;;;;;;;;23.50;19.75;;;;;;;;5039219;28;8789;-64
2022/05/13 08:17:56;;;;;;;;;19.25;17.50;;;;;;;;5021220;28;8786;-64
2022/05/13 08:20:25;;;;;;;;;19.00;16.50;;;;;;;;5038961;28;8773;-64
2022/05/13 08:22:52;;;;;;;;;20.50;18.50;;;;;;;;5039021;28;8980;-64
2022/05/13 08:25:18;;;;;;;;;20.50;18.75;;;;;;;;5021991;28;8757;-64
2022/05/13 08:27:45;;;;;;;;;23.75;23.75;;;;;;;;5039163;28;8769;-64
2022/05/13 08:30:12;;;;;;;;;19.75;18.00;;;;;;;;5038477;28;8783;-65
2022/05/13 08:32:39;;;;;;;;;23.00;20.00;;;;;;;;5038187;28;8789;-64
2022/05/13 08:35:06;;;;;;;;;23.25;21.50;;;;;;;;5038407;28;8811;-64
2022/05/13 08:37:32;;;;;;;;;21.75;21.50;;;;;;;;5020539;28;9434;-64
2022/05/13 08:40:00;;;;;;;;;18.00;17.00;;;;;;;;5039178;28;8769;-64
2022/05/13 08:42:35;;;;;;;;;14.75;14.75;;;;;;;;5021485;28;8769;-64
2022/05/13 08:45:02;;;;;;;;;23.00;20.50;;;;;;;;5038765;28;8777;-64
2022/05/13 08:47:38;;;;;;;;;20.50;19.50;;;;;;;;5020530;28;8874;-64
2022/05/13 08:50:17;;;;;;;;;21.25;21.25;;;;;;;;5021296;28;8761;-64
2022/05/13 08:53:07;;;;;;;;;21.25;18.00;;;;;;;;5004789;28;8839;-65
2022/05/13 08:55:49;;;;;;;;;20.75;20.00;;;;;;;;5023599;28;8778;-64
2022/05/13 08:58:20;;;;;;;;;19.20;17.80;;;;;;;;5039574;28;8753;-64
2022/05/13 09:00:49;;;;;;;;;21.00;19.50;;;;;;;;5021473;28;8777;-64
2022/05/13 09:03:16;;;;;;;;;20.75;19.75;;;;;;;;5038642;28;8851;-65
2022/05/13 09:05:48;;;;;;;;;19.50;17.25;;;;;;;;5038467;28;8860;-65
2022/05/13 09:08:15;;;;;;;;;18.00;18.00;;;;;;;;5021118;28;8838;-65
2022/05/13 09:10:47;;;;;;;;;20.25;18.00;;;;;;;;5020830;28;8770;-65
2022/05/13 09:13:16;;;;;;;;;22.60;17.60;;;;;;;;5039171;28;9418;-65
2022/05/13 09:15:48;;;;;;;;;22.00;19.25;;;;;;;;5020652;28;8769;-65
2022/05/13 09:18:25;;;;;;;;;21.75;20.25;;;;;;;;5020692;28;8749;-65
2022/05/13 09:20:55;;;;;;;;;22.50;18.50;;;;;;;;5021046;28;8785;-65
2022/05/13 09:23:22;;;;;;;;;10.25;10.25;;;;;;;;5020341;28;8786;-64
2022/05/13 09:25:53;;;;;;;;;19.00;19.00;;;;;;;;5038107;28;8780;-65
2022/05/13 09:28:20;;;;;;;;;17.75;16.00;;;;;;;;5037299;28;8770;-64
2022/05/13 09:30:48;;;;;;;;;21.25;18.25;;;;;;;;5038358;28;8770;-65
2022/05/13 09:33:37;;;;;;;;;16.60;15.20;;;;;;;;5037959;28;8785;-65
2022/05/13 09:36:08;;;;;;;;;19.80;18.00;;;;;;;;5028204;28;8840;-65
2022/05/13 09:38:42;;;;;;;;;20.25;16.75;;;;;;;;5020386;28;9116;-65
2022/05/13 09:41:10;;;;;;;;;17.00;16.00;;;;;;;;5036392;28;8784;-65
2022/05/13 09:43:42;;;;;;;;;19.80;16.80;;;;;;;;5003401;28;8805;-65
2022/05/13 09:46:08;;;;;;;;;21.00;19.00;;;;;;;;5038499;28;9435;-65
2022/05/13 09:48:39;;;;;;;;;20.00;17.50;;;;;;;;5037363;28;9514;-65
2022/05/13 09:51:23;;;;;;;;;17.75;16.75;;;;;;;;5037823;28;8887;-65
2022/05/13 09:54:02;;;;;;;;;18.50;17.25;;;;;;;;5017254;28;8826;-65
2022/05/13 09:56:58;;;;;;;;;19.75;18.00;;;;;;;;5017750;28;8905;-65
2022/05/13 09:59:26;;;;;;;;;22.80;18.80;;;;;;;;5008936;28;9470;-65
2022/05/13 10:01:52;;;;;;;;;16.00;15.00;;;;;;;;5017969;28;8771;-65
2022/05/13 10:04:23;;;;;;;;;20.25;18.50;;;;;;;;5032895;28;8767;-64
2022/05/13 10:06:50;;;;;;;;;19.50;15.50;;;;;;;;5018033;28;8743;-65
2022/05/13 10:15:05;;;;;;;;;16.50;15.25;;;;;;;;5018156;28;8771;-65
2022/05/13 10:17:31;;;;;;;;;22.50;19.00;;;;;;;;5016805;28;8763;-65
2022/05/13 10:20:03;;;;;;;;;21.50;19.50;;;;;;;;5017444;28;8766;-65
2022/05/13 10:22:33;;;;;;;;;16.75;14.50;;;;;;;;5016915;28;8771;-65
2022/05/13 10:25:06;;;;;;;;;21.60;17.20;;;;;;;;5016270;28;9044;-65
2022/05/13 10:27:33;;;;;;;;;16.75;16.75;;;;;;;;5017613;28;8774;-65
2022/05/13 10:30:01;;;;;;;;;22.75;20.25;;;;;;;;5017426;28;8775;-65
2022/05/13 10:32:34;;;;;;;;;25.50;19.25;;;;;;;;5016102;28;8769;-65
2022/05/13 10:35:01;;;;;;;;;21.00;17.50;;;;;;;;5017169;28;8819;-65
2022/05/13 10:37:34;;;;;;;;;19.50;18.50;;;;;;;;5015736;28;8769;-65
2022/05/13 10:40:05;;;;;;;;;20.00;18.75;;;;;;;;5016539;28;8783;-65
2022/05/13 10:42:34;;;;;;;;;20.75;17.75;;;;;;;;5017121;28;8844;-65
2022/05/13 10:45:05;;;;;;;;;19.75;18.00;;;;;;;;5017082;28;8809;-65
2022/05/13 10:47:37;;;;;;;;;22.80;19.00;;;;;;;;5015509;28;8770;-65
2022/05/13 10:50:16;;;;;;;;;21.20;20.40;;;;;;;;5017276;28;8759;-65
2022/05/13 10:52:57;;;;;;;;;22.80;20.00;;;;;;;;5015859;28;8806;-65
2022/05/13 10:55:33;;;;;;;;;13.25;10.25;;;;;;;;5016151;28;8752;-65
2022/05/13 10:58:18;;;;;;;;;21.20;19.00;;;;;;;;5016505;28;8786;-65
2022/05/13 11:00:48;;;;;;;;;26.00;26.00;;;;;;;;5017107;28;8827;-66
2022/05/13 11:03:14;;;;;;;;;22.25;21.25;;;;;;;;5016934;28;8803;-65
2022/05/13 11:05:41;;;;;;;;;23.50;20.00;;;;;;;;5016885;28;8763;-65
2022/05/13 11:08:31;;;;;;;;;21.20;19.20;;;;;;;;5016829;28;8762;-66
2022/05/13 11:11:01;;;;;;;;;19.80;19.60;;;;;;;;4978708;28;8745;-66
2022/05/13 11:13:28;;;;;;;;;21.80;20.20;;;;;;;;4996604;28;8733;-64
2022/05/13 11:15:54;;;;;;;;;18.25;17.00;;;;;;;;4997660;28;8836;-65
2022/05/13 11:18:40;;;;;;;;;18.00;15.00;;;;;;;;4997054;28;8781;-65
2022/05/13 11:21:19;;;;;;;;;18.50;16.75;;;;;;;;4997672;28;8765;-65
2022/05/13 11:25:54;;;;;;;;;17.00;17.00;;;;;;;;4997304;28;8808;-65
2022/05/13 11:26:35;;;;;;;;;20.00;18.00;;;;;;;;5001254;28;8860;-65
2022/05/13 11:29:08;;;;;;;;;32.75;28.50;;;;;;;;5001121;28;8835;-65
2022/05/13 11:31:40;;;;;;;;;30.00;26.20;;;;;;;;5001286;28;8822;-65
2022/05/13 11:34:24;;;;;;;;;24.00;20.25;;;;;;;;5001953;28;8741;-65
2022/05/13 11:36:58;;;;;;;;;25.75;23.25;;;;;;;;5001309;28;9550;-65
2022/05/13 11:39:45;;;;;;;;;21.50;19.25;;;;;;;;5003754;28;8746;-65
2022/05/13 11:42:21;;;;;;;;;21.50;21.50;;;;;;;;5020840;28;8786;-65
2022/05/13 11:44:49;;;;;;;;;25.60;22.00;;;;;;;;5019359;28;8781;-65
2022/05/13 11:47:21;;;;;;;;;25.50;23.75;;;;;;;;5020384;28;8770;-65
2022/05/13 11:49:47;;;;;;;;;22.00;18.75;;;;;;;;5019176;28;8759;-65
2022/05/13 11:52:14;;;;;;;;;26.80;23.40;;;;;;;;5019352;28;8787;-65
2022/05/13 11:54:41;;;;;;;;;28.25;27.50;;;;;;;;5020050;28;8879;-65
2022/05/13 11:57:23;;;;;;;;;28.75;26.75;;;;;;;;5019007;28;8771;-65
2022/05/13 11:59:52;;;;;;;;;27.75;24.50;;;;;;;;5020101;28;9447;-65
2022/05/13 12:02:32;;;;;;;;;39.25;28.50;;;;;;;;5018914;28;9456;-63
2022/05/13 12:05:10;;;;;;;;;25.00;24.00;;;;;;;;5019382;28;8826;-65
2022/05/13 12:07:41;;;;;;;;;22.00;20.50;;;;;;;;5020203;28;8755;-64
2022/05/13 12:10:07;;;;;;;;;25.00;22.50;;;;;;;;5009991;28;8794;-65
2022/05/13 12:12:37;;;;;;;;;27.50;26.50;;;;;;;;5018339;28;8793;-65
2022/05/13 12:15:22;;;;;;;;;18.25;15.75;;;;;;;;5020196;28;8771;-65
2022/05/13 12:17:59;;;;;;;;;27.25;25.50;;;;;;;;5018676;28;8758;-65
2022/05/13 12:20:32;;;;;;;;;29.00;24.50;;;;;;;;5019776;28;8759;-64
2022/05/13 12:23:02;;;;;;;;;29.75;24.50;;;;;;;;5019901;28;8759;-65
2022/05/13 12:25:34;;;;;;;;;24.25;22.50;;;;;;;;5019202;28;8743;-65
2022/05/13 12:28:11;;;;;;;;;24.00;20.50;;;;;;;;5020495;28;8735;-65
2022/05/13 12:30:39;;;;;;;;;22.25;20.00;;;;;;;;5018520;28;8883;-65
2022/05/13 12:33:24;;;;;;;;;29.50;27.75;;;;;;;;5034700;28;8778;-65
2022/05/13 12:39:02;;;;;;;;;27.50;25.25;;;;;;;;5019599;28;8766;-65
2022/05/13 12:41:39;;;;;;;;;31.50;28.75;;;;;;;;5019407;28;8771;-65
2022/05/13 12:44:12;;;;;;;;;26.25;22.00;;;;;;;;5018063;28;8794;-65
2022/05/13 12:46:48;;;;;;;;;27.25;25.75;;;;;;;;5019377;28;9529;-65
2022/05/13 12:49:18;;;;;;;;;34.75;31.25;;;;;;;;5018887;28;8763;-65
2022/05/13 12:51:48;;;;;;;;;31.75;25.00;;;;;;;;5023508;28;9609;-65
2022/05/13 12:54:24;;;;;;;;;31.25;29.00;;;;;;;;5038803;28;8794;-65
2022/05/13 12:56:52;;;;;;;;;19.25;16.00;;;;;;;;5021837;28;8793;-65
2022/05/13 12:59:27;;;;;;;;;29.25;28.00;;;;;;;;5021132;28;8798;-64
2022/05/13 13:01:58;;;;;;;;;22.00;20.75;;;;;;;;5021536;28;8885;-65
2022/05/13 13:04:25;;;;;;;;;29.75;27.25;;;;;;;;5037822;28;8816;-64
2022/05/13 13:06:52;;;;;;;;;29.00;27.75;;;;;;;;5038899;28;8758;-65
2022/05/13 13:09:21;;;;;;;;;31.00;28.00;;;;;;;;5038196;28;9454;-63
2022/05/13 13:12:08;;;;;;;;;23.75;22.25;;;;;;;;5038534;28;8741;-65
2022/05/13 13:14:53;;;;;;;;;31.25;25.50;;;;;;;;5038553;28;8945;-65
2022/05/13 13:17:25;;;;;;;;;33.25;29.00;;;;;;;;5020691;28;8782;-64
2022/05/13 13:19:56;;;;;;;;;29.75;25.50;;;;;;;;5059150;28;8758;-65
2022/05/13 13:22:23;;;;;;;;;27.75;26.00;;;;;;;;5059144;28;8754;-64
2022/05/13 13:24:50;;;;;;;;;26.50;23.00;;;;;;;;5052447;28;8974;-65
2022/05/13 13:27:17;;;;;;;;;24.75;22.00;;;;;;;;5019420;28;8763;-64
2022/05/13 13:29:45;;;;;;;;;27.50;26.50;;;;;;;;5017247;28;8774;-65
2022/05/13 13:32:19;;;;;;;;;27.50;23.50;;;;;;;;5017260;28;9019;-65
2022/05/13 13:34:49;;;;;;;;;30.25;24.75;;;;;;;;5017047;28;8767;-65
2022/05/13 13:37:16;;;;;;;;;30.75;27.50;;;;;;;;5019039;28;8779;-65
2022/05/13 13:39:43;;;;;;;;;27.50;26.75;;;;;;;;5013546;28;8769;-65
2022/05/13 13:42:11;;;;;;;;;29.50;26.75;;;;;;;;4998724;28;8762;-65
2022/05/13 13:44:38;;;;;;;;;30.00;27.00;;;;;;;;4998189;28;8850;-65
2022/05/13 13:47:05;;;;;;;;;28.75;25.50;;;;;;;;4998068;28;8796;-65
2022/05/13 13:49:33;;;;;;;;;27.50;26.00;;;;;;;;5013800;28;8871;-65
2022/05/13 13:52:01;;;;;;;;;29.75;28.00;;;;;;;;4999178;28;8781;-65
2022/05/13 13:54:34;;;;;;;;;34.50;30.75;;;;;;;;5000098;28;8921;-65
2022/05/13 13:57:05;;;;;;;;;35.75;31.50;;;;;;;;5018365;28;8766;-65
2022/05/13 13:59:50;;;;;;;;;38.00;31.50;;;;;;;;5017640;28;8759;-65
2022/05/13 14:02:33;;;;;;;;;35.00;30.50;;;;;;;;5018007;28;8869;-65
2022/05/13 14:05:00;;;;;;;;;33.75;30.00;;;;;;;;5018134;28;8825;-65
2022/05/13 14:07:27;;;;;;;;;42.75;34.00;;;;;;;;5032931;28;8952;-64
2022/05/13 14:09:54;;;;;;;;;40.75;33.00;;;;;;;;5016883;28;8786;-65
2022/05/13 14:12:22;;;;;;;;;43.00;35.00;;;;;;;;5016346;28;8787;-64
2022/05/13 14:14:52;;;;;;;;;24.50;24.50;;;;;;;;5018011;28;8884;-65
2022/05/13 14:17:20;;;;;;;;;37.25;33.50;;;;;;;;5015844;28;9505;-64
2022/05/13 14:19:50;;;;;;;;;41.50;35.25;;;;;;;;5016957;28;8756;-65
2022/05/13 14:22:17;;;;;;;;;39.50;34.75;;;;;;;;5018133;28;8755;-65
2022/05/13 14:24:44;;;;;;;;;43.50;36.25;;;;;;;;5017425;28;8780;-65
2022/05/13 14:27:14;;;;;;;;;49.75;41.00;;;;;;;;5015959;28;8755;-65
2022/05/13 14:29:41;;;;;;;;;51.25;40.25;;;;;;;;5032423;28;8769;-65
2022/05/13 14:32:11;;;;;;;;;45.75;39.75;;;;;;;;5016118;28;8829;-65
2022/05/13 14:34:38;;;;;;;;;47.50;37.00;;;;;;;;5031985;28;8821;-65
2022/05/13 14:37:06;;;;;;;;;44.00;36.25;;;;;;;;5032858;28;9441;-65
2022/05/13 14:39:50;;;;;;;;;45.00;38.25;;;;;;;;5014395;28;8835;-65
2022/05/13 14:42:49;;;;;;;;;47.50;38.50;;;;;;;;4974722;28;8846;-65
2022/05/13 14:45:18;;;;;;;;;41.50;35.50;;;;;;;;4985194;28;8845;-65
2022/05/13 14:47:45;;;;;;;;;43.50;36.00;;;;;;;;5017330;28;8783;-65
2022/05/13 14:50:12;;;;;;;;;44.00;35.00;;;;;;;;5017506;28;8771;-65
2022/05/13 14:52:43;;;;;;;;;43.50;35.50;;;;;;;;5012452;28;8805;-65
2022/05/13 14:55:23;;;;;;;;;44.75;35.50;;;;;;;;5006675;28;8747;-65
2022/05/13 14:57:50;;;;;;;;;37.00;33.50;;;;;;;;5017966;28;8771;-65
2022/05/13 15:00:18;;;;;;;;;51.00;42.00;;;;;;;;5016892;28;8802;-65
2022/05/13 15:02:54;;;;;;;;;50.75;42.25;;;;;;;;5015760;28;8779;-65
2022/05/13 15:05:33;;;;;;;;;48.25;40.50;;;;;;;;5017123;28;8782;-64
2022/05/13 15:08:00;;;;;;;;;47.25;40.00;;;;;;;;5017403;28;8787;-66
2022/05/13 15:10:28;;;;;;;;;45.25;34.50;;;;;;;;5016508;28;8752;-65